Sumterville, Florida
Current Conditions -  °F | °C
As of 10:53 AM on Friday 19 Dec 2014 (Local Time) from KLEE Reporting Station
Clear Clear  
Wind Chill: 62°   Ceiling: Unl
Heat Index: 62°   Visibility: 10mi
Dew Point: 43°   Wind: 6mph
Humidity: 50%   Direction: 20°NNE
Pressure: 30.17"   Gusts: NA
Location:  28.75°N, 82.06°W
Report Text: KLEE 191553Z 02005KT 10SM CLR 17/06 A3017 RMK AO2 SLP214 T01670061
Loading
Personal Weather Stations






























Interactive Weather Map New forecast layout! Learn more

10-Day Weather Forecast

Advertisements
Track Severe Weather on mobile